sensor_id;sensor_type;location;lat;lon;timestamp;P1;durP1;ratioP1;P2;durP2;ratioP2
61112;SDS011;47184;57.998;56.184;2023-03-23T00:01:02;0.93;;;0.20;;
61112;SDS011;47184;57.998;56.184;2023-03-23T00:03:29;0.00;;;0.00;;
61112;SDS011;47184;57.998;56.184;2023-03-23T00:05:58;0.00;;;0.00;;
61112;SDS011;47184;57.998;56.184;2023-03-23T00:08:32;2.10;;;0.85;;
61112;SDS011;47184;57.998;56.184;2023-03-23T00:11:04;0.43;;;0.00;;
61112;SDS011;47184;57.998;56.184;2023-03-23T00:13:30;1.02;;;0.20;;
61112;SDS011;47184;57.998;56.184;2023-03-23T00:15:58;0.00;;;0.00;;
61112;SDS011;47184;57.998;56.184;2023-03-23T00:18:25;0.98;;;0.10;;
61112;SDS011;47184;57.998;56.184;2023-03-23T00:20:52;0.15;;;0.10;;
61112;SDS011;47184;57.998;56.184;2023-03-23T00:23:23;0.40;;;0.17;;
61112;SDS011;47184;57.998;56.184;2023-03-23T00:25:52;0.10;;;0.10;;
61112;SDS011;47184;57.998;56.184;2023-03-23T00:28:22;0.00;;;0.00;;
61112;SDS011;47184;57.998;56.184;2023-03-23T00:33:27;0.30;;;0.10;;
61112;SDS011;47184;57.998;56.184;2023-03-23T00:35:55;0.45;;;0.20;;
61112;SDS011;47184;57.998;56.184;2023-03-23T00:38:22;0.17;;;0.10;;
61112;SDS011;47184;57.998;56.184;2023-03-23T00:40:50;9.50;;;0.82;;
61112;SDS011;47184;57.998;56.184;2023-03-23T00:43:17;0.63;;;0.20;;
61112;SDS011;47184;57.998;56.184;2023-03-23T00:45:45;0.00;;;0.00;;
61112;SDS011;47184;57.998;56.184;2023-03-23T00:48:22;0.50;;;0.20;;
61112;SDS011;47184;57.998;56.184;2023-03-23T00:50:51;0.00;;;0.00;;
61112;SDS011;47184;57.998;56.184;2023-03-23T00:53:18;0.10;;;0.00;;
61112;SDS011;47184;57.998;56.184;2023-03-23T00:55:45;24.27;;;0.70;;
61112;SDS011;47184;57.998;56.184;2023-03-23T00:58:13;4.03;;;0.65;;
61112;SDS011;47184;57.998;56.184;2023-03-23T01:00:40;1.00;;;0.20;;
61112;SDS011;47184;57.998;56.184;2023-03-23T01:03:07;0.22;;;0.13;;
61112;SDS011;47184;57.998;56.184;2023-03-23T01:05:38;1.13;;;0.20;;
61112;SDS011;47184;57.998;56.184;2023-03-23T01:08:05;0.65;;;0.50;;
61112;SDS011;47184;57.998;56.184;2023-03-23T01:10:32;0.47;;;0.20;;
61112;SDS011;47184;57.998;56.184;2023-03-23T01:12:59;0.10;;;0.10;;
61112;SDS011;47184;57.998;56.184;2023-03-23T01:15:26;0.60;;;0.28;;
61112;SDS011;47184;57.998;56.184;2023-03-23T01:17:53;0.35;;;0.20;;
61112;SDS011;47184;57.998;56.184;2023-03-23T01:20:20;0.50;;;0.32;;
61112;SDS011;47184;57.998;56.184;2023-03-23T01:22:46;0.40;;;0.15;;
61112;SDS011;47184;57.998;56.184;2023-03-23T01:25:13;1.35;;;0.50;;
61112;SDS011;47184;57.998;56.184;2023-03-23T01:27:39;0.57;;;0.25;;
61112;SDS011;47184;57.998;56.184;2023-03-23T01:30:06;1.67;;;0.50;;
61112;SDS011;47184;57.998;56.184;2023-03-23T01:32:36;2.97;;;0.68;;
61112;SDS011;47184;57.998;56.184;2023-03-23T01:35:02;0.20;;;0.20;;
61112;SDS011;47184;57.998;56.184;2023-03-23T01:37:29;3.13;;;0.32;;
61112;SDS011;47184;57.998;56.184;2023-03-23T01:39:56;0.10;;;0.10;;
61112;SDS011;47184;57.998;56.184;2023-03-23T01:42:23;0.90;;;0.20;;
61112;SDS011;47184;57.998;56.184;2023-03-23T01:47:52;0.73;;;0.22;;
61112;SDS011;47184;57.998;56.184;2023-03-23T01:50:47;0.00;;;0.00;;
61112;SDS011;47184;57.998;56.184;2023-03-23T01:53:37;0.28;;;0.20;;
61112;SDS011;47184;57.998;56.184;2023-03-23T01:56:08;1.13;;;0.30;;
61112;SDS011;47184;57.998;56.184;2023-03-23T01:58:37;0.30;;;0.15;;
61112;SDS011;47184;57.998;56.184;2023-03-23T02:01:05;0.35;;;0.20;;
61112;SDS011;47184;57.998;56.184;2023-03-23T02:03:37;0.20;;;0.10;;
61112;SDS011;47184;57.998;56.184;2023-03-23T02:06:07;0.35;;;0.35;;
61112;SDS011;47184;57.998;56.184;2023-03-23T02:08:38;4.75;;;0.17;;
61112;SDS011;47184;57.998;56.184;2023-03-23T02:11:11;0.25;;;0.20;;
61112;SDS011;47184;57.998;56.184;2023-03-23T02:13:48;0.22;;;0.13;;
61112;SDS011;47184;57.998;56.184;2023-03-23T02:16:19;0.52;;;0.30;;
61112;SDS011;47184;57.998;56.184;2023-03-23T02:28:03;0.70;;;0.10;;
61112;SDS011;47184;57.998;56.184;2023-03-23T02:38:20;0.10;;;0.10;;
61112;SDS011;47184;57.998;56.184;2023-03-23T02:40:52;1.13;;;0.45;;
61112;SDS011;47184;57.998;56.184;2023-03-23T02:43:21;0.65;;;0.47;;
61112;SDS011;47184;57.998;56.184;2023-03-23T02:45:50;0.68;;;0.35;;
61112;SDS011;47184;57.998;56.184;2023-03-23T02:48:18;0.15;;;0.10;;
61112;SDS011;47184;57.998;56.184;2023-03-23T02:50:49;1.38;;;0.32;;
61112;SDS011;47184;57.998;56.184;2023-03-23T02:53:18;0.57;;;0.20;;
61112;SDS011;47184;57.998;56.184;2023-03-23T02:55:50;0.77;;;0.47;;
61112;SDS011;47184;57.998;56.184;2023-03-23T02:58:23;0.57;;;0.20;;
61112;SDS011;47184;57.998;56.184;2023-03-23T03:00:50;6.85;;;0.47;;
61112;SDS011;47184;57.998;56.184;2023-03-23T03:03:20;0.20;;;0.00;;
61112;SDS011;47184;57.998;56.184;2023-03-23T03:06:32;0.17;;;0.10;;
61112;SDS011;47184;57.998;56.184;2023-03-23T03:11:41;1.80;;;0.30;;
61112;SDS011;47184;57.998;56.184;2023-03-23T03:14:35;1.08;;;0.40;;
61112;SDS011;47184;57.998;56.184;2023-03-23T03:17:28;1.00;;;0.40;;
61112;SDS011;47184;57.998;56.184;2023-03-23T03:19:56;0.30;;;0.15;;
61112;SDS011;47184;57.998;56.184;2023-03-23T03:22:32;0.00;;;0.00;;
61112;SDS011;47184;57.998;56.184;2023-03-23T03:25:03;0.45;;;0.15;;
61112;SDS011;47184;57.998;56.184;2023-03-23T03:27:31;0.75;;;0.22;;
61112;SDS011;47184;57.998;56.184;2023-03-23T03:30:12;3.55;;;0.30;;
61112;SDS011;47184;57.998;56.184;2023-03-23T03:32:44;8.10;;;0.32;;
61112;SDS011;47184;57.998;56.184;2023-03-23T03:35:15;0.00;;;0.00;;
61112;SDS011;47184;57.998;56.184;2023-03-23T03:37:42;0.30;;;0.15;;
61112;SDS011;47184;57.998;56.184;2023-03-23T03:40:10;0.52;;;0.25;;
61112;SDS011;47184;57.998;56.184;2023-03-23T03:42:40;0.20;;;0.10;;
61112;SDS011;47184;57.998;56.184;2023-03-23T03:45:09;0.55;;;0.28;;
61112;SDS011;47184;57.998;56.184;2023-03-23T03:47:38;0.38;;;0.10;;
61112;SDS011;47184;57.998;56.184;2023-03-23T03:50:05;2.60;;;0.50;;
61112;SDS011;47184;57.998;56.184;2023-03-23T03:52:32;0.65;;;0.28;;
61112;SDS011;47184;57.998;56.184;2023-03-23T03:55:00;0.22;;;0.10;;
61112;SDS011;47184;57.998;56.184;2023-03-23T03:57:29;0.10;;;0.10;;
61112;SDS011;47184;57.998;56.184;2023-03-23T04:00:21;0.15;;;0.05;;
61112;SDS011;47184;57.998;56.184;2023-03-23T04:02:49;0.55;;;0.15;;
61112;SDS011;47184;57.998;56.184;2023-03-23T04:05:40;20.52;;;0.40;;
61112;SDS011;47184;57.998;56.184;2023-03-23T04:08:07;1.27;;;0.43;;
61112;SDS011;47184;57.998;56.184;2023-03-23T04:10:33;1.17;;;0.38;;
61112;SDS011;47184;57.998;56.184;2023-03-23T04:13:00;0.10;;;0.08;;
61112;SDS011;47184;57.998;56.184;2023-03-23T04:15:36;1.38;;;0.25;;
61112;SDS011;47184;57.998;56.184;2023-03-23T04:18:02;8.90;;;0.70;;
61112;SDS011;47184;57.998;56.184;2023-03-23T04:20:29;0.63;;;0.22;;
61112;SDS011;47184;57.998;56.184;2023-03-23T04:22:56;0.28;;;0.13;;
61112;SDS011;47184;57.998;56.184;2023-03-23T04:25:23;5.95;;;0.73;;
61112;SDS011;47184;57.998;56.184;2023-03-23T04:27:52;7.57;;;1.17;;
61112;SDS011;47184;57.998;56.184;2023-03-23T04:30:23;8.25;;;3.53;;
61112;SDS011;47184;57.998;56.184;2023-03-23T04:33:11;3.70;;;1.08;;
61112;SDS011;47184;57.998;56.184;2023-03-23T04:35:46;0.13;;;0.10;;
61112;SDS011;47184;57.998;56.184;2023-03-23T04:38:21;1.65;;;0.40;;
61112;SDS011;47184;57.998;56.184;2023-03-23T04:40:56;11.65;;;1.17;;
61112;SDS011;47184;57.998;56.184;2023-03-23T04:43:45;11.00;;;1.35;;
61112;SDS011;47184;57.998;56.184;2023-03-23T04:46:19;1.55;;;0.45;;
61112;SDS011;47184;57.998;56.184;2023-03-23T04:48:49;4.78;;;0.88;;
61112;SDS011;47184;57.998;56.184;2023-03-23T04:51:23;2.83;;;1.48;;
61112;SDS011;47184;57.998;56.184;2023-03-23T04:53:54;3.85;;;1.05;;
61112;SDS011;47184;57.998;56.184;2023-03-23T04:56:23;7.13;;;2.15;;
61112;SDS011;47184;57.998;56.184;2023-03-23T04:58:50;2.88;;;1.08;;
61112;SDS011;47184;57.998;56.184;2023-03-23T05:01:17;1.75;;;0.85;;
61112;SDS011;47184;57.998;56.184;2023-03-23T05:04:00;1.60;;;0.73;;
61112;SDS011;47184;57.998;56.184;2023-03-23T05:06:27;7.25;;;1.48;;
61112;SDS011;47184;57.998;56.184;2023-03-23T05:08:58;2.90;;;1.42;;
61112;SDS011;47184;57.998;56.184;2023-03-23T05:11:25;0.50;;;0.40;;
61112;SDS011;47184;57.998;56.184;2023-03-23T05:13:51;1.05;;;0.40;;
61112;SDS011;47184;57.998;56.184;2023-03-23T05:16:17;0.57;;;0.57;;
61112;SDS011;47184;57.998;56.184;2023-03-23T05:18:44;2.55;;;1.17;;
61112;SDS011;47184;57.998;56.184;2023-03-23T05:21:15;0.60;;;0.25;;
61112;SDS011;47184;57.998;56.184;2023-03-23T05:23:45;1.48;;;0.60;;
61112;SDS011;47184;57.998;56.184;2023-03-23T05:26:19;1.33;;;0.60;;
61112;SDS011;47184;57.998;56.184;2023-03-23T05:28:47;1.40;;;0.55;;
61112;SDS011;47184;57.998;56.184;2023-03-23T05:31:18;2.58;;;0.95;;
61112;SDS011;47184;57.998;56.184;2023-03-23T05:33:45;2.47;;;0.63;;
61112;SDS011;47184;57.998;56.184;2023-03-23T05:36:18;13.45;;;1.20;;
61112;SDS011;47184;57.998;56.184;2023-03-23T05:39:08;1.75;;;0.68;;
61112;SDS011;47184;57.998;56.184;2023-03-23T05:41:55;1.20;;;0.65;;
61112;SDS011;47184;57.998;56.184;2023-03-23T05:44:24;1.85;;;0.80;;
61112;SDS011;47184;57.998;56.184;2023-03-23T05:46:55;1.05;;;0.60;;
61112;SDS011;47184;57.998;56.184;2023-03-23T05:49:21;3.33;;;0.88;;
61112;SDS011;47184;57.998;56.184;2023-03-23T05:51:48;6.10;;;1.15;;
61112;SDS011;47184;57.998;56.184;2023-03-23T05:54:16;0.25;;;0.20;;
61112;SDS011;47184;57.998;56.184;2023-03-23T05:56:44;0.63;;;0.20;;
61112;SDS011;47184;57.998;56.184;2023-03-23T05:59:31;2.22;;;0.75;;
61112;SDS011;47184;57.998;56.184;2023-03-23T06:02:00;3.40;;;1.20;;
61112;SDS011;47184;57.998;56.184;2023-03-23T06:04:26;1.63;;;0.50;;
61112;SDS011;47184;57.998;56.184;2023-03-23T06:07:02;3.03;;;0.93;;
61112;SDS011;47184;57.998;56.184;2023-03-23T06:09:29;0.35;;;0.20;;
61112;SDS011;47184;57.998;56.184;2023-03-23T06:12:08;2.13;;;0.43;;
61112;SDS011;47184;57.998;56.184;2023-03-23T06:14:55;4.65;;;1.00;;
61112;SDS011;47184;57.998;56.184;2023-03-23T06:17:33;1.10;;;0.55;;
61112;SDS011;47184;57.998;56.184;2023-03-23T06:19:59;1.38;;;0.55;;
61112;SDS011;47184;57.998;56.184;2023-03-23T06:22:25;1.00;;;0.30;;
61112;SDS011;47184;57.998;56.184;2023-03-23T06:25:07;1.10;;;0.40;;
61112;SDS011;47184;57.998;56.184;2023-03-23T06:27:42;2.50;;;1.00;;
61112;SDS011;47184;57.998;56.184;2023-03-23T06:30:09;3.72;;;1.02;;
61112;SDS011;47184;57.998;56.184;2023-03-23T06:32:36;0.60;;;0.40;;
61112;SDS011;47184;57.998;56.184;2023-03-23T06:35:08;2.92;;;0.95;;
61112;SDS011;47184;57.998;56.184;2023-03-23T06:37:38;0.60;;;0.30;;
61112;SDS011;47184;57.998;56.184;2023-03-23T06:40:14;2.15;;;0.60;;
61112;SDS011;47184;57.998;56.184;2023-03-23T06:42:49;1.05;;;0.68;;
61112;SDS011;47184;57.998;56.184;2023-03-23T06:48:19;1.17;;;0.60;;
61112;SDS011;47184;57.998;56.184;2023-03-23T06:50:45;1.45;;;0.80;;
61112;SDS011;47184;57.998;56.184;2023-03-23T06:53:15;1.20;;;0.65;;
61112;SDS011;47184;57.998;56.184;2023-03-23T06:55:49;1.63;;;0.77;;
61112;SDS011;47184;57.998;56.184;2023-03-23T06:58:17;1.92;;;0.93;;
61112;SDS011;47184;57.998;56.184;2023-03-23T07:00:43;3.67;;;1.10;;
61112;SDS011;47184;57.998;56.184;2023-03-23T07:03:12;1.58;;;0.77;;
61112;SDS011;47184;57.998;56.184;2023-03-23T07:05:38;0.60;;;0.40;;
61112;SDS011;47184;57.998;56.184;2023-03-23T07:08:05;1.33;;;0.60;;
61112;SDS011;47184;57.998;56.184;2023-03-23T07:10:47;1.00;;;0.40;;
61112;SDS011;47184;57.998;56.184;2023-03-23T07:13:19;1.40;;;0.57;;
61112;SDS011;47184;57.998;56.184;2023-03-23T07:15:50;1.45;;;0.32;;
61112;SDS011;47184;57.998;56.184;2023-03-23T07:18:18;2.47;;;0.63;;
61112;SDS011;47184;57.998;56.184;2023-03-23T07:20:48;0.73;;;0.28;;
61112;SDS011;47184;57.998;56.184;2023-03-23T07:23:16;1.45;;;0.22;;
61112;SDS011;47184;57.998;56.184;2023-03-23T07:25:52;0.85;;;0.38;;
61112;SDS011;47184;57.998;56.184;2023-03-23T07:28:24;0.40;;;0.30;;
61112;SDS011;47184;57.998;56.184;2023-03-23T07:30:53;0.25;;;0.25;;
61112;SDS011;47184;57.998;56.184;2023-03-23T07:33:20;0.45;;;0.25;;
61112;SDS011;47184;57.998;56.184;2023-03-23T07:35:48;1.35;;;0.85;;
61112;SDS011;47184;57.998;56.184;2023-03-23T07:38:16;4.95;;;1.10;;
61112;SDS011;47184;57.998;56.184;2023-03-23T07:40:47;2.03;;;0.55;;
61112;SDS011;47184;57.998;56.184;2023-03-23T07:43:16;2.58;;;1.20;;
61112;SDS011;47184;57.998;56.184;2023-03-23T07:46:01;0.75;;;0.38;;
61112;SDS011;47184;57.998;56.184;2023-03-23T07:48:40;3.03;;;1.00;;
61112;SDS011;47184;57.998;56.184;2023-03-23T07:51:07;1.23;;;0.68;;
61112;SDS011;47184;57.998;56.184;2023-03-23T07:53:34;2.58;;;1.00;;
61112;SDS011;47184;57.998;56.184;2023-03-23T07:56:20;0.77;;;0.55;;
61112;SDS011;47184;57.998;56.184;2023-03-23T07:58:51;2.75;;;1.05;;
61112;SDS011;47184;57.998;56.184;2023-03-23T08:01:18;2.00;;;0.80;;
61112;SDS011;47184;57.998;56.184;2023-03-23T08:04:03;1.17;;;0.70;;
61112;SDS011;47184;57.998;56.184;2023-03-23T08:06:48;5.30;;;1.00;;
61112;SDS011;47184;57.998;56.184;2023-03-23T08:09:30;2.95;;;1.50;;
61112;SDS011;47184;57.998;56.184;2023-03-23T08:11:57;1.98;;;1.05;;
61112;SDS011;47184;57.998;56.184;2023-03-23T08:14:52;1.30;;;0.73;;
61112;SDS011;47184;57.998;56.184;2023-03-23T08:17:49;1.95;;;0.80;;
61112;SDS011;47184;57.998;56.184;2023-03-23T08:20:35;2.67;;;0.95;;
61112;SDS011;47184;57.998;56.184;2023-03-23T08:23:14;2.72;;;1.05;;
61112;SDS011;47184;57.998;56.184;2023-03-23T08:26:07;3.25;;;1.10;;
61112;SDS011;47184;57.998;56.184;2023-03-23T08:28:52;0.95;;;0.65;;
61112;SDS011;47184;57.998;56.184;2023-03-23T08:31:38;3.33;;;1.00;;
61112;SDS011;47184;57.998;56.184;2023-03-23T08:34:31;3.22;;;1.65;;
61112;SDS011;47184;57.998;56.184;2023-03-23T08:37:17;1.60;;;0.93;;
61112;SDS011;47184;57.998;56.184;2023-03-23T08:40:10;2.67;;;1.15;;
61112;SDS011;47184;57.998;56.184;2023-03-23T08:43:17;3.60;;;1.80;;
61112;SDS011;47184;57.998;56.184;2023-03-23T08:46:07;2.65;;;1.05;;
61112;SDS011;47184;57.998;56.184;2023-03-23T08:49:08;1.08;;;0.68;;
61112;SDS011;47184;57.998;56.184;2023-03-23T08:51:40;1.50;;;0.80;;
61112;SDS011;47184;57.998;56.184;2023-03-23T08:54:09;3.83;;;1.23;;
61112;SDS011;47184;57.998;56.184;2023-03-23T08:57:00;8.02;;;2.13;;
61112;SDS011;47184;57.998;56.184;2023-03-23T08:59:56;2.35;;;1.45;;
61112;SDS011;47184;57.998;56.184;2023-03-23T09:02:53;3.53;;;1.52;;
61112;SDS011;47184;57.998;56.184;2023-03-23T09:05:22;2.08;;;0.95;;
61112;SDS011;47184;57.998;56.184;2023-03-23T09:08:15;6.03;;;2.25;;
61112;SDS011;47184;57.998;56.184;2023-03-23T09:10:42;4.70;;;1.35;;
61112;SDS011;47184;57.998;56.184;2023-03-23T09:13:08;2.35;;;1.25;;
61112;SDS011;47184;57.998;56.184;2023-03-23T09:15:34;2.58;;;1.42;;
61112;SDS011;47184;57.998;56.184;2023-03-23T09:18:00;3.50;;;1.90;;
61112;SDS011;47184;57.998;56.184;2023-03-23T09:20:27;4.15;;;1.20;;
61112;SDS011;47184;57.998;56.184;2023-03-23T09:22:54;2.92;;;1.60;;
61112;SDS011;47184;57.998;56.184;2023-03-23T09:25:24;4.57;;;2.13;;
61112;SDS011;47184;57.998;56.184;2023-03-23T09:27:52;3.55;;;0.95;;
61112;SDS011;47184;57.998;56.184;2023-03-23T09:33:14;2.00;;;1.08;;
61112;SDS011;47184;57.998;56.184;2023-03-23T09:35:40;2.95;;;1.13;;
61112;SDS011;47184;57.998;56.184;2023-03-23T09:38:08;3.38;;;1.33;;
61112;SDS011;47184;57.998;56.184;2023-03-23T09:40:48;3.17;;;1.05;;
61112;SDS011;47184;57.998;56.184;2023-03-23T09:48:43;2.20;;;1.00;;
61112;SDS011;47184;57.998;56.184;2023-03-23T09:53:50;3.92;;;1.17;;
61112;SDS011;47184;57.998;56.184;2023-03-23T09:56:20;2.88;;;1.50;;
61112;SDS011;47184;57.998;56.184;2023-03-23T09:58:52;1.85;;;1.17;;
61112;SDS011;47184;57.998;56.184;2023-03-23T10:04:07;2.20;;;1.10;;
61112;SDS011;47184;57.998;56.184;2023-03-23T10:07:08;2.47;;;1.55;;
61112;SDS011;47184;57.998;56.184;2023-03-23T10:09:58;2.05;;;1.00;;
61112;SDS011;47184;57.998;56.184;2023-03-23T10:15:14;1.60;;;0.77;;
61112;SDS011;47184;57.998;56.184;2023-03-23T10:17:54;2.92;;;1.23;;
61112;SDS011;47184;57.998;56.184;2023-03-23T10:20:31;2.80;;;1.70;;
61112;SDS011;47184;57.998;56.184;2023-03-23T10:23:13;8.48;;;0.65;;
61112;SDS011;47184;57.998;56.184;2023-03-23T10:26:04;1.35;;;0.93;;
61112;SDS011;47184;57.998;56.184;2023-03-23T10:31:04;0.95;;;0.73;;
61112;SDS011;47184;57.998;56.184;2023-03-23T10:33:40;0.73;;;0.55;;
61112;SDS011;47184;57.998;56.184;2023-03-23T10:41:35;1.50;;;0.82;;
61112;SDS011;47184;57.998;56.184;2023-03-23T10:44:04;3.05;;;1.33;;
61112;SDS011;47184;57.998;56.184;2023-03-23T10:46:40;3.40;;;1.05;;
61112;SDS011;47184;57.998;56.184;2023-03-23T10:49:12;3.63;;;1.23;;
61112;SDS011;47184;57.998;56.184;2023-03-23T10:51:44;1.90;;;1.02;;
61112;SDS011;47184;57.998;56.184;2023-03-23T10:54:26;0.90;;;0.40;;
61112;SDS011;47184;57.998;56.184;2023-03-23T10:56:57;6.55;;;1.75;;
61112;SDS011;47184;57.998;56.184;2023-03-23T10:59:27;2.97;;;1.33;;
61112;SDS011;47184;57.998;56.184;2023-03-23T11:01:58;1.98;;;1.20;;
61112;SDS011;47184;57.998;56.184;2023-03-23T11:04:29;2.25;;;0.90;;
61112;SDS011;47184;57.998;56.184;2023-03-23T11:06:59;4.63;;;1.50;;
61112;SDS011;47184;57.998;56.184;2023-03-23T11:09:36;2.70;;;1.27;;
61112;SDS011;47184;57.998;56.184;2023-03-23T11:12:04;3.17;;;1.45;;
61112;SDS011;47184;57.998;56.184;2023-03-23T11:14:42;3.95;;;1.35;;
61112;SDS011;47184;57.998;56.184;2023-03-23T11:17:26;1.40;;;0.95;;
61112;SDS011;47184;57.998;56.184;2023-03-23T11:19:53;2.97;;;0.90;;
61112;SDS011;47184;57.998;56.184;2023-03-23T11:22:24;1.90;;;1.30;;
61112;SDS011;47184;57.998;56.184;2023-03-23T11:24:54;1.80;;;0.70;;
61112;SDS011;47184;57.998;56.184;2023-03-23T11:27:24;2.10;;;1.15;;
61112;SDS011;47184;57.998;56.184;2023-03-23T11:30:00;3.95;;;1.52;;
61112;SDS011;47184;57.998;56.184;2023-03-23T11:32:36;1.30;;;0.82;;
61112;SDS011;47184;57.998;56.184;2023-03-23T11:35:04;1.75;;;1.05;;
61112;SDS011;47184;57.998;56.184;2023-03-23T11:40:49;3.28;;;1.65;;
61112;SDS011;47184;57.998;56.184;2023-03-23T11:43:21;1.75;;;0.75;;
61112;SDS011;47184;57.998;56.184;2023-03-23T11:51:41;3.83;;;1.17;;
61112;SDS011;47184;57.998;56.184;2023-03-23T11:54:15;5.28;;;1.90;;
61112;SDS011;47184;57.998;56.184;2023-03-23T11:56:59;2.70;;;1.50;;
61112;SDS011;47184;57.998;56.184;2023-03-23T11:59:30;3.42;;;0.95;;
61112;SDS011;47184;57.998;56.184;2023-03-23T12:07:17;3.65;;;1.77;;
61112;SDS011;47184;57.998;56.184;2023-03-23T12:15:49;1.58;;;0.88;;
61112;SDS011;47184;57.998;56.184;2023-03-23T12:32:37;1.40;;;0.60;;
61112;SDS011;47184;57.998;56.184;2023-03-23T12:38:19;15.87;;;1.60;;
61112;SDS011;47184;57.998;56.184;2023-03-23T12:41:26;4.15;;;1.63;;
61112;SDS011;47184;57.998;56.184;2023-03-23T12:43:57;4.05;;;1.67;;
61112;SDS011;47184;57.998;56.184;2023-03-23T12:46:47;8.68;;;1.67;;
61112;SDS011;47184;57.998;56.184;2023-03-23T12:49:22;3.70;;;1.75;;
61112;SDS011;47184;57.998;56.184;2023-03-23T12:51:58;3.10;;;1.35;;
61112;SDS011;47184;57.998;56.184;2023-03-23T12:54:42;4.25;;;1.30;;
61112;SDS011;47184;57.998;56.184;2023-03-23T12:57:24;1.95;;;1.33;;
61112;SDS011;47184;57.998;56.184;2023-03-23T13:00:07;3.03;;;0.85;;
61112;SDS011;47184;57.998;56.184;2023-03-23T13:02:53;7.70;;;2.40;;
61112;SDS011;47184;57.998;56.184;2023-03-23T13:05:28;2.30;;;1.27;;
61112;SDS011;47184;57.998;56.184;2023-03-23T13:08:01;2.53;;;1.17;;
61112;SDS011;47184;57.998;56.184;2023-03-23T13:10:36;6.65;;;2.58;;
61112;SDS011;47184;57.998;56.184;2023-03-23T13:13:11;2.42;;;1.48;;
61112;SDS011;47184;57.998;56.184;2023-03-23T13:15:48;2.58;;;1.08;;
61112;SDS011;47184;57.998;56.184;2023-03-23T13:23:49;3.85;;;2.17;;
61112;SDS011;47184;57.998;56.184;2023-03-23T13:26:21;4.78;;;1.42;;
61112;SDS011;47184;57.998;56.184;2023-03-23T13:29:01;2.60;;;1.30;;
61112;SDS011;47184;57.998;56.184;2023-03-23T13:31:35;3.72;;;2.20;;
61112;SDS011;47184;57.998;56.184;2023-03-23T13:34:03;4.05;;;1.40;;
61112;SDS011;47184;57.998;56.184;2023-03-23T13:37:00;5.85;;;2.10;;
61112;SDS011;47184;57.998;56.184;2023-03-23T13:39:30;1.35;;;0.93;;
61112;SDS011;47184;57.998;56.184;2023-03-23T13:50:11;3.10;;;1.05;;
61112;SDS011;47184;57.998;56.184;2023-03-23T13:52:59;2.42;;;1.20;;
61112;SDS011;47184;57.998;56.184;2023-03-23T14:16:00;2.30;;;0.75;;
61112;SDS011;47184;57.998;56.184;2023-03-23T14:18:37;2.42;;;1.40;;
61112;SDS011;47184;57.998;56.184;2023-03-23T14:21:13;4.05;;;1.85;;
61112;SDS011;47184;57.998;56.184;2023-03-23T14:23:42;13.23;;;3.03;;
61112;SDS011;47184;57.998;56.184;2023-03-23T14:26:12;5.38;;;2.50;;
61112;SDS011;47184;57.998;56.184;2023-03-23T14:28:43;8.07;;;2.42;;
61112;SDS011;47184;57.998;56.184;2023-03-23T14:31:26;2.40;;;1.67;;
61112;SDS011;47184;57.998;56.184;2023-03-23T14:33:54;8.47;;;3.60;;
61112;SDS011;47184;57.998;56.184;2023-03-23T14:36:22;5.28;;;2.40;;
61112;SDS011;47184;57.998;56.184;2023-03-23T14:38:56;3.60;;;1.52;;
61112;SDS011;47184;57.998;56.184;2023-03-23T14:41:28;3.42;;;1.67;;
61112;SDS011;47184;57.998;56.184;2023-03-23T14:43:56;3.97;;;2.22;;
61112;SDS011;47184;57.998;56.184;2023-03-23T14:46:25;12.07;;;4.15;;
61112;SDS011;47184;57.998;56.184;2023-03-23T14:48:52;2.67;;;1.25;;
61112;SDS011;47184;57.998;56.184;2023-03-23T14:51:19;3.88;;;2.45;;
61112;SDS011;47184;57.998;56.184;2023-03-23T14:53:46;5.20;;;1.83;;
61112;SDS011;47184;57.998;56.184;2023-03-23T14:56:17;5.70;;;3.97;;
61112;SDS011;47184;57.998;56.184;2023-03-23T14:58:51;5.15;;;2.67;;
61112;SDS011;47184;57.998;56.184;2023-03-23T15:01:18;7.38;;;3.72;;
61112;SDS011;47184;57.998;56.184;2023-03-23T15:04:15;4.85;;;2.22;;
61112;SDS011;47184;57.998;56.184;2023-03-23T15:06:46;13.73;;;2.05;;
61112;SDS011;47184;57.998;56.184;2023-03-23T15:09:17;7.35;;;3.92;;
61112;SDS011;47184;57.998;56.184;2023-03-23T15:11:51;4.75;;;2.53;;
61112;SDS011;47184;57.998;56.184;2023-03-23T15:14:47;7.93;;;2.60;;
61112;SDS011;47184;57.998;56.184;2023-03-23T15:17:19;6.47;;;3.00;;
61112;SDS011;47184;57.998;56.184;2023-03-23T15:19:48;10.60;;;4.70;;
61112;SDS011;47184;57.998;56.184;2023-03-23T15:24:47;5.10;;;2.83;;
61112;SDS011;47184;57.998;56.184;2023-03-23T15:27:27;4.25;;;1.67;;
61112;SDS011;47184;57.998;56.184;2023-03-23T15:29:59;8.43;;;4.97;;
61112;SDS011;47184;57.998;56.184;2023-03-23T15:32:38;6.55;;;3.65;;
61112;SDS011;47184;57.998;56.184;2023-03-23T15:35:13;6.70;;;3.70;;
61112;SDS011;47184;57.998;56.184;2023-03-23T15:37:44;6.90;;;3.50;;
61112;SDS011;47184;57.998;56.184;2023-03-23T15:40:14;4.70;;;2.83;;
61112;SDS011;47184;57.998;56.184;2023-03-23T15:42:42;4.63;;;2.13;;
61112;SDS011;47184;57.998;56.184;2023-03-23T15:50:17;7.95;;;3.85;;
61112;SDS011;47184;57.998;56.184;2023-03-23T15:52:44;7.40;;;4.28;;
61112;SDS011;47184;57.998;56.184;2023-03-23T15:55:35;7.00;;;3.85;;
61112;SDS011;47184;57.998;56.184;2023-03-23T15:58:07;6.00;;;2.67;;
61112;SDS011;47184;57.998;56.184;2023-03-23T16:00:36;5.65;;;2.85;;
61112;SDS011;47184;57.998;56.184;2023-03-23T16:03:04;3.35;;;1.48;;
61112;SDS011;47184;57.998;56.184;2023-03-23T16:05:32;6.97;;;2.85;;
61112;SDS011;47184;57.998;56.184;2023-03-23T16:07:59;6.22;;;2.72;;
61112;SDS011;47184;57.998;56.184;2023-03-23T16:10:27;4.28;;;2.40;;
61112;SDS011;47184;57.998;56.184;2023-03-23T16:12:53;6.03;;;3.25;;
61112;SDS011;47184;57.998;56.184;2023-03-23T16:15:20;2.97;;;1.77;;
61112;SDS011;47184;57.998;56.184;2023-03-23T16:17:47;5.45;;;3.22;;
61112;SDS011;47184;57.998;56.184;2023-03-23T16:20:17;8.55;;;1.77;;
61112;SDS011;47184;57.998;56.184;2023-03-23T16:22:46;4.03;;;1.77;;
61112;SDS011;47184;57.998;56.184;2023-03-23T16:25:13;5.38;;;3.33;;
61112;SDS011;47184;57.998;56.184;2023-03-23T16:27:41;3.97;;;2.10;;
61112;SDS011;47184;57.998;56.184;2023-03-23T16:30:16;2.83;;;1.58;;
61112;SDS011;47184;57.998;56.184;2023-03-23T16:32:44;6.15;;;2.60;;
61112;SDS011;47184;57.998;56.184;2023-03-23T16:35:12;3.67;;;2.00;;
61112;SDS011;47184;57.998;56.184;2023-03-23T16:37:43;3.58;;;2.35;;
61112;SDS011;47184;57.998;56.184;2023-03-23T16:40:12;3.05;;;1.80;;
61112;SDS011;47184;57.998;56.184;2023-03-23T16:42:39;5.15;;;3.03;;
61112;SDS011;47184;57.998;56.184;2023-03-23T16:45:08;4.15;;;2.78;;
61112;SDS011;47184;57.998;56.184;2023-03-23T16:47:35;7.32;;;4.32;;
61112;SDS011;47184;57.998;56.184;2023-03-23T16:50:03;5.47;;;2.78;;
61112;SDS011;47184;57.998;56.184;2023-03-23T16:52:31;2.15;;;1.40;;
61112;SDS011;47184;57.998;56.184;2023-03-23T16:55:00;3.15;;;1.85;;
61112;SDS011;47184;57.998;56.184;2023-03-23T16:57:27;4.35;;;2.35;;
61112;SDS011;47184;57.998;56.184;2023-03-23T16:59:56;3.58;;;2.10;;
61112;SDS011;47184;57.998;56.184;2023-03-23T17:02:23;1.88;;;0.98;;
61112;SDS011;47184;57.998;56.184;2023-03-23T17:04:50;5.95;;;2.83;;
61112;SDS011;47184;57.998;56.184;2023-03-23T17:07:17;4.07;;;1.60;;
61112;SDS011;47184;57.998;56.184;2023-03-23T17:09:45;5.35;;;2.72;;
61112;SDS011;47184;57.998;56.184;2023-03-23T17:12:12;1.70;;;1.05;;
61112;SDS011;47184;57.998;56.184;2023-03-23T17:14:39;8.63;;;1.80;;
61112;SDS011;47184;57.998;56.184;2023-03-23T17:17:05;1.38;;;0.82;;
61112;SDS011;47184;57.998;56.184;2023-03-23T17:19:32;7.63;;;4.10;;